Terminal Aerodrome Forecast
Issued by NWS Mt. Holly, NJ

Home | Current Version | Previous Version | Text Only | Print | Product List | Glossary On
Versions: 1 2 3 4 5 6 7 8 9 10 11 12 13 14 15 16 17 18 19 20 21 22 23 24 25 26 27 28
104
FTUS41 KPHI 110210 AAA
TAFACY
TAF AMD
KACY 110210Z 1102/1124 28012KT P6SM SCT045 BKN080
     FM110900 28012KT P6SM SCT045
     FM111400 28018G30KT P6SM BKN045
     FM112300 29014G22KT P6SM SCT045=

USA.gov is the U.S. government's official web portal to all federal, state and local government web resources and services.